Time;durP1;ratioP1;P1;durP2;ratioP2;P2;SDS_P1;SDS_P2;PMS_P1;PMS_P2;Temp;Humidity;BMP_temperature;BMP_pressure;BME280_temperature;BME280_humidity;BME280_pressure;Samples;Min_cycle;Max_cycle;Signal;HPM_P1;HPM_P2
2022/11/12 00:00:24;;;;;;;12.63;8.13;;;8.70;96.80;;;;;;5095849;28;20046;-72
2022/11/12 00:02:50;;;;;;;11.85;8.15;;;8.60;97.20;;;;;;5093133;28;20027;-73
2022/11/12 00:05:15;;;;;;;14.52;7.20;;;8.70;97.50;;;;;;5097839;28;20039;-72
2022/11/12 00:07:41;;;;;;;13.30;7.07;;;8.70;97.80;;;;;;5098684;28;20084;-73
2022/11/12 00:10:07;;;;;;;11.98;7.03;;;8.80;97.80;;;;;;5097627;28;20034;-73
2022/11/12 00:12:33;;;;;;;9.68;7.03;;;8.80;97.90;;;;;;5098673;28;20149;-73
2022/11/12 00:14:59;;;;;;;10.25;6.50;;;8.80;98.00;;;;;;5095591;28;20035;-71
2022/11/12 00:17:24;;;;;;;11.73;6.18;;;8.80;97.80;;;;;;5098814;28;20106;-73
2022/11/12 00:19:50;;;;;;;9.77;6.43;;;8.80;97.70;;;;;;5079643;28;20646;-73
2022/11/12 00:22:16;;;;;;;12.52;6.93;;;8.80;97.60;;;;;;5098224;28;20039;-73
2022/11/12 00:24:41;;;;;;;8.30;5.90;;;8.80;97.60;;;;;;5095097;28;20083;-73
2022/11/12 00:27:07;;;;;;;9.93;5.95;;;8.80;97.70;;;;;;5081424;28;20612;-73
2022/11/12 00:29:32;;;;;;;14.00;6.85;;;8.80;97.90;;;;;;5094606;28;20087;-73
2022/11/12 00:31:58;;;;;;;14.52;6.50;;;8.90;98.20;;;;;;5097759;28;20065;-73
2022/11/12 00:34:24;;;;;;;11.75;6.25;;;8.90;98.40;;;;;;5097291;28;20028;-73
2022/11/12 00:36:49;;;;;;;11.85;5.50;;;9.00;98.50;;;;;;5097565;28;20035;-72
2022/11/12 00:39:15;;;;;;;10.90;6.07;;;9.00;98.60;;;;;;5097166;28;20031;-73
2022/11/12 00:41:40;;;;;;;9.23;6.03;;;9.10;98.70;;;;;;5098271;28;20108;-73
2022/11/12 00:44:06;;;;;;;9.55;5.97;;;9.10;98.70;;;;;;5096217;28;20122;-73
2022/11/12 00:46:32;;;;;;;11.90;5.57;;;9.10;98.70;;;;;;5097301;28;20031;-73
2022/11/12 00:48:57;;;;;;;14.02;5.75;;;9.20;98.70;;;;;;5098176;28;20435;-73
2022/11/12 00:51:23;;;;;;;11.13;5.60;;;9.20;98.70;;;;;;5079437;28;20092;-73
2022/11/12 00:53:49;;;;;;;8.75;5.13;;;9.20;98.60;;;;;;5098081;28;20534;-72
2022/11/12 00:56:15;;;;;;;8.38;4.70;;;9.10;98.40;;;;;;5083083;28;20106;-73
2022/11/12 00:58:41;;;;;;;9.75;4.90;;;9.10;98.30;;;;;;5094221;28;20115;-72
2022/11/12 01:01:10;;;;;;;11.35;4.88;;;9.10;98.30;;;;;;5078525;28;20467;-73
2022/11/12 01:03:37;;;;;;;10.13;6.00;;;9.10;98.20;;;;;;5093775;28;20230;-73
2022/11/12 01:06:08;;;;;;;10.43;4.88;;;9.10;98.20;;;;;;5094682;28;20039;-72
2022/11/12 01:08:34;;;;;;;7.30;4.78;;;9.10;98.30;;;;;;5097154;28;20053;-73
2022/11/12 01:11:21;;;;;;;10.30;4.97;;;9.10;98.30;;;;;;5096942;28;20095;-72
2022/11/12 01:13:52;;;;;;;6.72;5.35;;;9.10;98.40;;;;;;5097166;28;20104;-73
2022/11/12 01:16:19;;;;;;;10.70;5.07;;;9.10;98.40;;;;;;5096529;28;20027;-72
2022/11/12 01:18:47;;;;;;;9.38;4.88;;;9.10;98.20;;;;;;5097688;28;20051;-72
2022/11/12 01:21:13;;;;;;;6.03;4.03;;;9.00;98.00;;;;;;5097614;28;20028;-73
2022/11/12 01:23:42;;;;;;;8.57;4.60;;;9.00;97.70;;;;;;5096905;28;20047;-73
2022/11/12 01:26:10;;;;;;;4.78;3.72;;;8.90;97.40;;;;;;5094949;28;20554;-73
2022/11/12 01:28:36;;;;;;;7.10;4.32;;;8.90;97.20;;;;;;5093137;28;20031;-73
2022/11/12 01:31:16;;;;;;;5.70;4.20;;;8.90;97.40;;;;;;5096152;28;20055;-73
2022/11/12 01:33:43;;;;;;;5.07;3.53;;;8.90;97.50;;;;;;5079624;28;20123;-72
2022/11/12 01:36:10;;;;;;;6.13;4.20;;;9.00;97.40;;;;;;5101593;28;20864;-73
2022/11/12 01:38:37;;;;;;;7.47;4.07;;;9.00;97.30;;;;;;5083028;28;20023;-73
2022/11/12 01:41:04;;;;;;;6.93;4.30;;;9.00;97.40;;;;;;5078583;28;20050;-73
2022/11/12 01:43:30;;;;;;;7.43;4.53;;;9.20;97.70;;;;;;5081079;28;20032;-73
2022/11/12 01:45:58;;;;;;;7.43;4.07;;;9.20;97.90;;;;;;5088433;28;20032;-73
2022/11/12 01:48:32;;;;;;;7.60;3.83;;;9.30;98.40;;;;;;5082253;28;20441;-72
2022/11/12 01:50:58;;;;;;;6.40;3.80;;;9.30;98.10;;;;;;5100582;28;20024;-73
2022/11/12 01:53:27;;;;;;;7.82;4.57;;;9.40;98.00;;;;;;5101227;28;20073;-72
2022/11/12 01:55:54;;;;;;;11.40;5.72;;;9.50;98.10;;;;;;5098439;28;20104;-73
2022/11/12 01:58:25;;;;;;;7.43;4.10;;;9.50;98.50;;;;;;5101177;28;20604;-73
2022/11/12 02:00:51;;;;;;;9.00;4.68;;;9.60;98.30;;;;;;5077978;28;20051;-72
2022/11/12 02:03:23;;;;;;;9.25;5.05;;;9.60;98.10;;;;;;5093186;28;20047;-73
2022/11/12 02:05:54;;;;;;;9.55;5.18;;;9.70;97.90;;;;;;5100565;28;20549;-72
2022/11/12 02:08:21;;;;;;;10.88;5.57;;;9.80;98.10;;;;;;5100217;28;20073;-73
2022/11/12 02:10:47;;;;;;;9.38;5.05;;;9.90;98.20;;;;;;5100023;28;20112;-73
2022/11/12 02:15:57;;;;;;;7.95;5.03;;;10.10;98.10;;;;;;5100571;28;20038;-73
2022/11/12 02:18:22;;;;;;;9.25;5.50;;;10.10;98.40;;;;;;5087265;28;20042;-73
2022/11/12 02:21:03;;;;;;;14.38;6.35;;;10.10;98.10;;;;;;5100131;28;20039;-73
2022/11/12 02:23:31;;;;;;;12.20;7.18;;;10.10;98.00;;;;;;5099526;28;20031;-73
2022/11/12 02:25:58;;;;;;;12.45;7.45;;;10.10;98.30;;;;;;5100277;28;20048;-72
2022/11/12 02:28:24;;;;;;;9.82;6.57;;;10.20;98.60;;;;;;5099702;28;20132;-73
2022/11/12 02:30:50;;;;;;;11.73;6.57;;;10.30;98.70;;;;;;5096709;28;20031;-73
2022/11/12 02:33:16;;;;;;;11.15;6.28;;;10.40;98.70;;;;;;5086745;28;20099;-72
2022/11/12 02:35:41;;;;;;;10.50;6.45;;;10.50;98.60;;;;;;5097534;28;20026;-73
2022/11/12 02:38:08;;;;;;;15.30;6.70;;;10.60;98.50;;;;;;5097194;28;21013;-73
2022/11/12 02:40:34;;;;;;;12.75;6.60;;;10.70;98.30;;;;;;5100816;28;20027;-73
2022/11/12 02:43:00;;;;;;;10.65;6.22;;;10.80;98.40;;;;;;5099261;28;20035;-74
2022/11/12 02:45:26;;;;;;;12.93;6.35;;;10.90;98.40;;;;;;5077989;28;20051;-73
2022/11/12 02:47:51;;;;;;;13.75;7.30;;;10.90;98.40;;;;;;5099054;28;21088;-73
2022/11/12 02:50:17;;;;;;;11.00;6.50;;;11.00;98.40;;;;;;5082526;28;20036;-72
2022/11/12 02:52:43;;;;;;;13.02;6.80;;;11.10;98.40;;;;;;5094739;28;20039;-73
2022/11/12 02:55:10;;;;;;;10.23;5.88;;;11.20;98.30;;;;;;5094378;28;20039;-72
2022/11/12 02:57:38;;;;;;;13.40;6.95;;;11.20;98.10;;;;;;5092801;28;20020;-73
2022/11/12 03:00:06;;;;;;;12.32;6.68;;;11.10;98.00;;;;;;5095259;28;20036;-73
2022/11/12 03:02:31;;;;;;;10.30;5.93;;;11.10;98.30;;;;;;5093249;28;20036;-73
2022/11/12 03:04:57;;;;;;;11.75;6.18;;;11.20;98.10;;;;;;5100377;28;20104;-73
2022/11/12 03:07:22;;;;;;;13.18;6.80;;;11.20;97.90;;;;;;5095861;28;20098;-73
2022/11/12 03:09:48;;;;;;;11.13;4.90;;;11.30;97.90;;;;;;5066277;28;20523;-72
2022/11/12 03:12:14;;;;;;;10.38;5.07;;;11.30;97.80;;;;;;5079547;28;20024;-73
2022/11/12 03:14:40;;;;;;;8.90;4.57;;;11.30;97.50;;;;;;5098518;28;20181;-73
2022/11/12 03:17:05;;;;;;;7.45;4.78;;;11.20;97.30;;;;;;5076681;28;20032;-73
2022/11/12 03:19:31;;;;;;;6.70;4.32;;;11.20;96.50;;;;;;5081900;28;20054;-73
2022/11/12 03:21:56;;;;;;;8.90;4.60;;;11.10;96.30;;;;;;5073391;28;20024;-73
2022/11/12 03:24:22;;;;;;;9.05;4.60;;;11.00;96.50;;;;;;5098397;28;20057;-73
2022/11/12 03:26:48;;;;;;;11.43;6.78;;;11.00;96.80;;;;;;5097193;28;20462;-73
2022/11/12 03:29:13;;;;;;;9.80;5.65;;;11.00;97.00;;;;;;5093923;28;20121;-73
2022/11/12 03:31:39;;;;;;;15.45;7.63;;;10.90;97.20;;;;;;5094384;28;20054;-73
2022/11/12 03:34:05;;;;;;;16.80;7.85;;;10.90;97.40;;;;;;5095376;28;20047;-73
2022/11/12 03:36:30;;;;;;;13.50;7.70;;;10.90;97.60;;;;;;5096496;28;20035;-72
2022/11/12 03:38:56;;;;;;;14.73;7.32;;;11.00;97.70;;;;;;5097137;28;20050;-72
2022/11/12 03:41:21;;;;;;;16.95;8.80;;;11.10;97.80;;;;;;5098949;28;20143;-73
2022/11/12 03:43:47;;;;;;;12.15;8.70;;;11.20;97.60;;;;;;5080356;28;20051;-73
2022/11/12 03:46:13;;;;;;;17.35;8.57;;;11.20;97.60;;;;;;5077687;28;20093;-73
2022/11/12 03:48:38;;;;;;;15.50;9.27;;;11.20;97.40;;;;;;5099136;28;20027;-73
2022/11/12 03:51:04;;;;;;;17.00;10.23;;;11.20;97.50;;;;;;5097304;28;20040;-73
2022/11/12 03:53:29;;;;;;;14.98;8.30;;;11.20;97.70;;;;;;5097580;28;20446;-72
2022/11/12 03:55:55;;;;;;;14.35;9.40;;;11.20;97.70;;;;;;5097851;28;20035;-73
2022/11/12 03:58:21;;;;;;;20.35;10.00;;;11.20;97.60;;;;;;5089109;28;20491;-73
2022/11/12 04:00:46;;;;;;;15.35;9.00;;;11.20;97.60;;;;;;5080669;28;20558;-72
2022/11/12 04:03:12;;;;;;;16.75;9.27;;;11.10;97.60;;;;;;5094586;28;20035;-72
2022/11/12 04:08:36;;;;;;;12.50;8.23;;;11.10;97.70;;;;;;5096690;28;20395;-73
2022/11/12 04:11:13;;;;;;;16.88;9.02;;;11.00;97.70;;;;;;5096929;28;20092;-73
2022/11/12 04:13:46;;;;;;;22.25;9.13;;;11.00;97.70;;;;;;5098793;28;20628;-72
2022/11/12 04:21:57;;;;;;;16.00;9.18;;;11.00;98.00;;;;;;5085440;28;20145;-72
2022/11/12 04:27:15;;;;;;;15.90;9.10;;;11.00;98.30;;;;;;5097652;28;20052;-73
2022/11/12 04:32:27;;;;;;;14.27;8.48;;;11.00;98.40;;;;;;5096620;28;20027;-73
2022/11/12 04:34:52;;;;;;;15.68;9.75;;;11.10;98.40;;;;;;5098370;28;20035;-73
2022/11/12 04:37:19;;;;;;;11.68;8.10;;;10.90;98.20;;;;;;5098555;28;20053;-72
2022/11/12 04:39:44;;;;;;;14.07;7.80;;;10.90;98.60;;;;;;5075430;28;20036;-72
2022/11/12 04:45:04;;;;;;;10.43;6.78;;;10.90;98.40;;;;;;5077180;28;20101;-72
2022/11/12 04:47:32;;;;;;;14.18;8.10;;;10.80;98.30;;;;;;5097432;28;20075;-71
2022/11/12 04:49:59;;;;;;;11.63;7.32;;;10.70;98.10;;;;;;5096579;28;20436;-72
2022/11/12 04:52:26;;;;;;;14.65;7.65;;;10.70;98.40;;;;;;5079814;28;20035;-72
2022/11/12 04:54:52;;;;;;;12.75;7.25;;;10.70;98.50;;;;;;5096940;28;20027;-71
2022/11/12 04:57:18;;;;;;;14.65;8.70;;;10.60;98.50;;;;;;5087954;28;21107;-72
2022/11/12 04:59:43;;;;;;;15.75;8.45;;;10.60;98.50;;;;;;5089746;28;20115;-72
2022/11/12 05:02:09;;;;;;;13.52;7.85;;;10.60;98.70;;;;;;5096850;28;20077;-72
2022/11/12 05:04:34;;;;;;;15.98;8.32;;;10.70;98.70;;;;;;5095541;28;20039;-72
2022/11/12 05:07:00;;;;;;;15.38;6.95;;;10.70;98.70;;;;;;5080056;28;20032;-71
2022/11/12 05:09:27;;;;;;;10.65;6.55;;;10.80;98.60;;;;;;5075335;28;20024;-71
2022/11/12 05:11:54;;;;;;;12.07;6.85;;;10.80;98.30;;;;;;5096711;28;20098;-71
2022/11/12 05:14:20;;;;;;;12.10;7.60;;;10.70;97.90;;;;;;5097433;28;20023;-71
2022/11/12 05:16:46;;;;;;;12.43;7.03;;;10.80;98.00;;;;;;5076054;28;20474;-71
2022/11/12 05:19:12;;;;;;;14.23;7.35;;;10.80;97.90;;;;;;5092260;28;20032;-71
2022/11/12 05:24:23;;;;;;;10.65;7.32;;;11.00;97.60;;;;;;5097523;28;20058;-71
2022/11/12 05:26:49;;;;;;;9.65;7.20;;;11.10;97.50;;;;;;5096619;28;20024;-71
2022/11/12 05:29:14;;;;;;;8.70;6.57;;;11.10;97.30;;;;;;5086171;28;20497;-71
2022/11/12 05:31:40;;;;;;;9.77;7.38;;;11.10;97.20;;;;;;5075526;28;20038;-72
2022/11/12 05:34:06;;;;;;;13.02;7.43;;;11.10;97.20;;;;;;5094154;28;20023;-71
2022/11/12 05:36:32;;;;;;;16.67;7.30;;;11.10;97.50;;;;;;5092841;28;20055;-71
2022/11/12 05:38:58;;;;;;;13.20;7.47;;;11.10;97.80;;;;;;5078748;28;20042;-71
2022/11/12 05:41:24;;;;;;;17.55;7.55;;;11.10;98.00;;;;;;5097259;28;20027;-71
2022/11/12 05:43:50;;;;;;;9.95;7.03;;;11.20;98.10;;;;;;5095759;28;20031;-71
2022/11/12 05:46:16;;;;;;;12.57;7.32;;;11.20;98.10;;;;;;5095237;28;20145;-71
2022/11/12 05:48:42;;;;;;;11.13;7.45;;;11.30;98.20;;;;;;5077983;28;20481;-71
2022/11/12 05:51:08;;;;;;;10.82;6.85;;;11.40;98.00;;;;;;5087540;28;20036;-71
2022/11/12 05:53:33;;;;;;;11.55;6.25;;;11.40;97.80;;;;;;5095440;28;20031;-73
2022/11/12 05:56:03;;;;;;;12.85;7.25;;;11.50;97.60;;;;;;5078835;28;20100;-73
2022/11/12 05:58:30;;;;;;;12.18;7.00;;;11.40;97.40;;;;;;5096577;28;20992;-74
2022/11/12 06:00:56;;;;;;;9.38;6.45;;;11.40;97.40;;;;;;5090078;28;20083;-73
2022/11/12 06:03:21;;;;;;;12.02;6.03;;;11.40;97.60;;;;;;5093901;28;20460;-73
2022/11/12 06:05:47;;;;;;;9.98;7.18;;;11.50;97.60;;;;;;5094403;28;20619;-73
2022/11/12 06:08:13;;;;;;;12.15;6.70;;;11.50;97.30;;;;;;5093107;28;20046;-74
2022/11/12 06:10:38;;;;;;;10.25;6.35;;;11.50;97.50;;;;;;5094503;28;20048;-72
2022/11/12 06:13:04;;;;;;;10.77;6.82;;;11.60;97.30;;;;;;5075170;28;20051;-72
2022/11/12 06:15:30;;;;;;;11.32;7.35;;;11.60;97.30;;;;;;5093201;28;20063;-73
2022/11/12 06:17:56;;;;;;;13.63;6.93;;;11.70;97.30;;;;;;5094813;28;20093;-72
2022/11/12 06:20:22;;;;;;;14.77;7.20;;;11.60;97.20;;;;;;5090190;28;20027;-73
2022/11/12 06:22:48;;;;;;;12.63;7.05;;;11.70;97.10;;;;;;5097677;28;20031;-72
2022/11/12 06:25:15;;;;;;;8.30;5.80;;;11.70;97.00;;;;;;5097487;28;20043;-72
2022/11/12 06:27:41;;;;;;;9.05;5.63;;;11.70;97.00;;;;;;5075631;28;20050;-72
2022/11/12 06:30:08;;;;;;;10.45;6.53;;;11.60;97.20;;;;;;5091385;28;20028;-72
2022/11/12 06:32:33;;;;;;;14.57;8.40;;;11.60;97.30;;;;;;5100323;28;20023;-73
2022/11/12 06:34:59;;;;;;;15.73;8.60;;;11.60;97.30;;;;;;5100122;28;20039;-71
2022/11/12 06:37:25;;;;;;;16.23;8.40;;;11.60;97.50;;;;;;5079790;28;20538;-72
2022/11/12 06:39:50;;;;;;;9.25;7.10;;;11.70;97.50;;;;;;5096987;28;20062;-73
2022/11/12 06:42:16;;;;;;;12.88;7.80;;;11.70;97.60;;;;;;5098893;28;20407;-72
2022/11/12 06:44:42;;;;;;;12.40;7.85;;;11.80;97.60;;;;;;5098351;28;20085;-73
2022/11/12 06:47:09;;;;;;;13.80;7.97;;;11.90;97.70;;;;;;5100956;28;20465;-72
2022/11/12 06:49:34;;;;;;;11.93;7.35;;;11.90;97.70;;;;;;5099291;28;20028;-72
2022/11/12 06:52:00;;;;;;;13.50;8.13;;;11.90;97.80;;;;;;5090984;28;20464;-72
2022/11/12 06:54:26;;;;;;;13.27;7.43;;;11.90;97.80;;;;;;5093550;28;20436;-72
2022/11/12 06:56:51;;;;;;;13.25;7.30;;;12.00;97.80;;;;;;5098980;28;20490;-72
2022/11/12 06:59:17;;;;;;;10.30;7.03;;;12.10;97.70;;;;;;5086956;28;20031;-72
2022/11/12 07:01:43;;;;;;;13.60;7.55;;;12.10;97.60;;;;;;5090502;28;20036;-72
2022/11/12 07:04:09;;;;;;;16.50;7.25;;;12.10;97.80;;;;;;5097298;28;20498;-73
2022/11/12 07:06:35;;;;;;;14.73;8.05;;;12.20;97.80;;;;;;5095557;28;20032;-72
2022/11/12 07:09:01;;;;;;;10.30;7.00;;;12.10;98.00;;;;;;5099212;28;20035;-73
2022/11/12 07:11:27;;;;;;;13.68;7.55;;;12.20;98.00;;;;;;5097265;28;20027;-72
2022/11/12 07:13:53;;;;;;;11.82;7.18;;;12.30;98.00;;;;;;5091169;28;20504;-73
2022/11/12 07:16:18;;;;;;;12.43;7.45;;;12.30;98.00;;;;;;5088686;28;20032;-72
2022/11/12 07:18:45;;;;;;;15.25;8.00;;;12.30;97.90;;;;;;5077134;28;20039;-72
2022/11/12 07:21:13;;;;;;;19.67;9.02;;;12.30;97.90;;;;;;5095031;28;20031;-72
2022/11/12 07:23:39;;;;;;;17.52;10.13;;;12.20;98.20;;;;;;5095211;28;20027;-72
2022/11/12 07:26:07;;;;;;;22.10;10.73;;;12.10;98.70;;;;;;5097246;28;20145;-72
2022/11/12 07:28:33;;;;;;;23.02;11.80;;;12.20;98.90;;;;;;5094294;28;20027;-73
2022/11/12 07:31:08;;;;;;;19.40;12.68;;;12.20;99.20;;;;;;5088500;28;20047;-72
2022/11/12 07:33:34;;;;;;;22.98;11.75;;;12.20;99.40;;;;;;5095918;28;20092;-72
2022/11/12 07:36:04;;;;;;;14.98;10.20;;;12.30;99.70;;;;;;5087725;28;20486;-71
2022/11/12 07:38:32;;;;;;;18.27;11.60;;;12.40;99.80;;;;;;5064199;28;20164;-72
2022/11/12 07:40:59;;;;;;;16.60;10.50;;;12.40;99.60;;;;;;5083543;28;20034;-72
2022/11/12 07:43:25;;;;;;;14.40;10.20;;;12.50;99.70;;;;;;5080820;28;20092;-72
2022/11/12 07:45:51;;;;;;;19.35;9.77;;;12.60;99.60;;;;;;5086267;28;20063;-72
2022/11/12 07:48:16;;;;;;;14.88;9.63;;;12.80;99.40;;;;;;5094012;28;20502;-72
2022/11/12 07:50:42;;;;;;;12.60;9.10;;;12.90;99.10;;;;;;5091824;28;20071;-71
2022/11/12 07:53:07;;;;;;;11.15;7.90;;;13.10;98.70;;;;;;5068489;28;20028;-72
2022/11/12 07:55:33;;;;;;;10.52;7.80;;;13.20;98.10;;;;;;5092499;28;20043;-72
2022/11/12 07:57:59;;;;;;;11.77;7.57;;;13.30;97.40;;;;;;5096732;28;20051;-72
2022/11/12 08:00:24;;;;;;;12.60;7.13;;;13.40;96.90;;;;;;5091839;28;20042;-72
2022/11/12 08:02:50;;;;;;;10.93;7.55;;;13.40;96.50;;;;;;5089423;28;20282;-72
2022/11/12 08:05:16;;;;;;;13.77;7.78;;;13.50;96.10;;;;;;5073497;28;20273;-72
2022/11/12 08:07:41;;;;;;;10.70;8.32;;;13.40;96.50;;;;;;5097663;28;20095;-73
2022/11/12 08:10:08;;;;;;;17.80;9.73;;;13.40;96.50;;;;;;5098800;28;20031;-72
2022/11/12 08:12:33;;;;;;;15.00;10.60;;;13.20;96.90;;;;;;5097968;28;20398;-72
2022/11/12 08:14:59;;;;;;;16.98;11.25;;;13.00;97.60;;;;;;5064372;28;20024;-72
2022/11/12 08:17:24;;;;;;;16.65;10.95;;;13.00;98.00;;;;;;5097322;28;20037;-72
2022/11/12 08:19:54;;;;;;;17.90;11.05;;;13.00;98.00;;;;;;5088049;28;20032;-73
2022/11/12 08:22:20;;;;;;;17.48;9.73;;;13.10;97.80;;;;;;5093653;28;20432;-73
2022/11/12 08:24:45;;;;;;;14.27;9.18;;;13.20;97.70;;;;;;5089628;28;20036;-72
2022/11/12 08:27:11;;;;;;;17.98;8.65;;;13.30;97.40;;;;;;5087023;28;20030;-72
2022/11/12 08:29:36;;;;;;;13.35;8.82;;;13.40;97.10;;;;;;5077432;28;20028;-73
2022/11/12 08:32:02;;;;;;;16.40;8.02;;;13.60;96.80;;;;;;5072876;28;20786;-73
2022/11/12 08:34:27;;;;;;;15.73;8.70;;;13.70;96.50;;;;;;5094917;28;20054;-72
2022/11/12 08:36:53;;;;;;;14.60;8.95;;;13.80;96.40;;;;;;5088785;28;20024;-74
2022/11/12 08:39:19;;;;;;;15.82;9.90;;;13.90;95.60;;;;;;5094737;28;20364;-72
2022/11/12 08:41:45;;;;;;;15.82;9.75;;;13.80;95.70;;;;;;5093489;28;20040;-72
2022/11/12 08:44:11;;;;;;;14.85;8.77;;;13.80;95.70;;;;;;5060118;28;20100;-72
2022/11/12 08:46:37;;;;;;;14.35;8.63;;;13.90;95.90;;;;;;5087502;28;20472;-71
2022/11/12 08:49:02;;;;;;;15.95;8.93;;;14.10;94.90;;;;;;5073241;28;20028;-72
2022/11/12 08:51:28;;;;;;;14.73;8.32;;;14.50;94.80;;;;;;5073902;28;20490;-72
2022/11/12 08:53:54;;;;;;;12.65;7.32;;;14.90;93.50;;;;;;5065500;28;20108;-72
2022/11/12 08:56:20;;;;;;;9.68;7.20;;;15.00;92.70;;;;;;5082305;28;20024;-72
2022/11/12 08:58:45;;;;;;;8.75;6.10;;;15.60;91.80;;;;;;5097644;28;20043;-72
2022/11/12 09:01:11;;;;;;;10.68;5.90;;;16.40;88.80;;;;;;5097760;28;20547;-72
2022/11/12 09:03:37;;;;;;;6.90;5.10;;;17.50;84.20;;;;;;5097459;28;20118;-71
2022/11/12 09:06:04;;;;;;;9.00;5.07;;;19.10;76.50;;;;;;5087108;28;20096;-71
2022/11/12 09:08:33;;;;;;;11.07;4.82;;;20.70;69.00;;;;;;5071760;28;20020;-71
2022/11/12 09:10:58;;;;;;;5.78;4.72;;;22.00;63.60;;;;;;5087080;28;20709;-71
2022/11/12 09:13:24;;;;;;;5.95;4.07;;;23.10;59.40;;;;;;5091453;28;20113;-71
2022/11/12 09:15:49;;;;;;;8.15;4.35;;;24.10;55.90;;;;;;5070948;28;20035;-72
2022/11/12 09:18:17;;;;;;;7.78;4.53;;;24.80;53.40;;;;;;5090407;28;20510;-72
2022/11/12 09:20:43;;;;;;;6.45;4.13;;;25.30;51.00;;;;;;5078943;28;20041;-71
2022/11/12 09:23:16;;;;;;;5.47;3.97;;;25.20;51.40;;;;;;5095575;28;20023;-72
2022/11/12 09:25:42;;;;;;;6.80;3.90;;;24.50;52.70;;;;;;5092325;28;20066;-72
2022/11/12 09:28:10;;;;;;;8.35;4.38;;;23.40;55.80;;;;;;5078963;28;20221;-71
2022/11/12 09:30:40;;;;;;;6.75;4.45;;;22.50;58.70;;;;;;5078925;28;20026;-72
2022/11/12 09:33:05;;;;;;;5.43;4.25;;;21.10;63.00;;;;;;5090818;28;20398;-72
2022/11/12 09:35:31;;;;;;;8.80;4.70;;;20.90;65.20;;;;;;5075644;28;20061;-71
2022/11/12 09:37:58;;;;;;;10.10;4.85;;;20.80;67.10;;;;;;5075739;28;20027;-70
2022/11/12 09:40:44;;;;;;;9.85;4.95;;;20.50;67.10;;;;;;5076727;28;20024;-72
2022/11/12 09:43:17;;;;;;;7.72;4.70;;;20.20;68.30;;;;;;5095436;28;20027;-71
2022/11/12 09:45:45;;;;;;;5.70;4.30;;;20.20;69.40;;;;;;5092134;28;20245;-72
2022/11/12 09:48:13;;;;;;;9.50;4.93;;;20.30;69.80;;;;;;5094841;28;20027;-71
2022/11/12 09:50:48;;;;;;;7.97;4.57;;;20.10;69.60;;;;;;5087138;28;20024;-71
2022/11/12 09:53:53;;;;;;;8.70;4.75;;;19.90;71.20;;;;;;5090968;28;20028;-71
2022/11/12 09:56:20;;;;;;;7.45;5.00;;;19.70;71.10;;;;;;5079683;28;20535;-71
2022/11/12 09:58:47;;;;;;;7.47;5.60;;;19.60;72.10;;;;;;5094998;28;20028;-71
2022/11/12 10:01:31;;;;;;;7.38;5.38;;;18.80;74.80;;;;;;5090692;28;20027;-71
2022/11/12 10:04:17;;;;;;;7.00;5.13;;;18.50;77.30;;;;;;5097915;28;20360;-71
2022/11/12 10:06:55;;;;;;;7.90;5.63;;;18.20;78.30;;;;;;5097706;28;20116;-71
2022/11/12 10:09:34;;;;;;;10.85;6.30;;;17.80;81.00;;;;;;5092774;28;20016;-71
2022/11/12 10:12:31;;;;;;;7.75;5.57;;;17.70;81.00;;;;;;5096859;28;20110;-71
2022/11/12 10:18:31;;;;;;;8.75;6.18;;;17.70;82.20;;;;;;5095479;28;20042;-71
2022/11/12 10:21:11;;;;;;;8.60;5.80;;;17.50;82.80;;;;;;5098008;28;20483;-71
2022/11/12 10:23:48;;;;;;;10.82;6.50;;;17.50;82.20;;;;;;5089447;28;20108;-71
2022/11/12 10:26:16;;;;;;;13.05;6.95;;;16.90;83.70;;;;;;5092390;28;20039;-71
2022/11/12 10:28:48;;;;;;;9.85;6.70;;;16.70;85.90;;;;;;5079294;28;20042;-71
2022/11/12 10:31:19;;;;;;;9.32;6.22;;;16.60;86.40;;;;;;5095620;28;20088;-71
2022/11/12 10:33:45;;;;;;;10.00;5.95;;;16.50;86.90;;;;;;5087338;28;20031;-71
2022/11/12 10:36:27;;;;;;;11.38;6.43;;;16.40;88.50;;;;;;5093925;28;20043;-72
2022/11/12 10:38:54;;;;;;;10.40;5.72;;;16.40;88.80;;;;;;5086531;28;20053;-71
2022/11/12 10:41:24;;;;;;;9.48;5.75;;;16.60;89.90;;;;;;5087849;28;20061;-71
2022/11/12 10:44:00;;;;;;;7.40;5.32;;;17.10;87.80;;;;;;5087830;28;20020;-71
2022/11/12 10:46:39;;;;;;;11.18;5.20;;;17.50;86.50;;;;;;5081539;28;20047;-71
2022/11/12 10:49:13;;;;;;;9.65;5.88;;;17.70;83.40;;;;;;5091671;28;20062;-71
2022/11/12 10:51:39;;;;;;;9.05;5.15;;;17.30;84.30;;;;;;5084015;28;20023;-71
2022/11/12 10:54:25;;;;;;;10.13;4.28;;;17.30;84.50;;;;;;5095687;28;20032;-71
2022/11/12 10:56:51;;;;;;;7.03;3.70;;;18.50;79.00;;;;;;5069842;28;20036;-71
2022/11/12 10:59:22;;;;;;;6.85;3.65;;;19.80;72.60;;;;;;5081140;28;20215;-71
2022/11/12 11:01:56;;;;;;;6.32;2.83;;;21.80;66.30;;;;;;5077899;28;20066;-72
2022/11/12 11:04:35;;;;;;;4.95;3.28;;;24.20;56.20;;;;;;5069850;28;20530;-72
2022/11/12 11:07:23;;;;;;;4.90;2.75;;;25.80;51.60;;;;;;5097835;28;20031;-73
2022/11/12 11:10:23;;;;;;;5.80;2.72;;;25.10;51.30;;;;;;5087126;28;20035;-73
2022/11/12 11:13:07;;;;;;;5.78;3.15;;;23.60;55.60;;;;;;5087128;28;20054;-73
2022/11/12 11:15:33;;;;;;;8.95;3.38;;;22.30;60.20;;;;;;5081111;28;20024;-73
2022/11/12 11:17:58;;;;;;;6.78;3.20;;;21.30;63.40;;;;;;4740870;28;9999609;-72
2022/11/12 11:20:28;;;;;;;8.77;3.95;;;20.40;68.40;;;;;;5088001;28;20042;-72
2022/11/12 11:23:05;;;;;;;5.75;3.35;;;19.80;70.70;;;;;;5092575;28;20040;-72
2022/11/12 11:25:34;;;;;;;6.50;3.15;;;19.50;72.30;;;;;;5093569;28;20032;-73
2022/11/12 11:28:25;;;;;;;7.88;4.10;;;19.50;73.60;;;;;;5096636;28;20092;-72
2022/11/12 11:31:01;;;;;;;5.97;3.90;;;19.00;74.00;;;;;;5091687;28;20290;-72
2022/11/12 11:33:34;;;;;;;8.98;4.07;;;19.20;74.30;;;;;;5093506;28;20063;-74
2022/11/12 11:36:12;;;;;;;5.97;3.65;;;19.30;74.70;;;;;;5093524;28;20373;-74
2022/11/12 11:38:38;;;;;;;11.02;3.63;;;19.50;73.80;;;;;;5092899;28;20031;-74
2022/11/12 11:41:29;;;;;;;6.30;2.88;;;19.90;71.70;;;;;;5075343;28;20035;-74
2022/11/12 11:44:05;;;;;;;5.45;3.03;;;20.30;71.10;;;;;;5090997;28;20168;-74
2022/11/12 11:46:37;;;;;;;11.43;3.72;;;20.30;70.40;;;;;;5086540;28;20740;-75
2022/11/12 11:49:30;;;;;;;5.13;3.10;;;20.50;70.00;;;;;;5071454;28;20027;-74
2022/11/12 11:52:27;;;;;;;6.70;3.78;;;20.40;69.20;;;;;;5069124;28;20050;-74
2022/11/12 11:55:08;;;;;;;5.00;3.20;;;19.70;71.10;;;;;;5085252;28;20173;-74
2022/11/12 11:57:55;;;;;;;6.55;3.63;;;19.70;71.70;;;;;;5093447;28;20113;-75
2022/11/12 12:00:24;;;;;;;4.55;3.20;;;19.70;72.20;;;;;;5093924;28;20133;-74
2022/11/12 12:03:09;;;;;;;5.10;3.13;;;20.00;71.30;;;;;;5074132;28;20371;-74
2022/11/12 12:05:43;;;;;;;4.95;3.13;;;20.00;71.20;;;;;;5072051;28;20036;-74
2022/11/12 12:08:31;;;;;;;7.10;3.42;;;19.90;72.90;;;;;;5073633;28;20367;-74
2022/11/12 12:11:12;;;;;;;5.95;3.25;;;20.10;71.30;;;;;;5094595;28;20498;-73
2022/11/12 12:14:13;;;;;;;7.30;3.58;;;20.30;72.20;;;;;;5091791;28;20027;-74
2022/11/12 12:17:05;;;;;;;5.53;3.40;;;20.30;71.30;;;;;;5079514;28;20081;-74
2022/11/12 12:19:42;;;;;;;5.05;3.47;;;19.60;72.60;;;;;;5075023;28;20658;-74
2022/11/12 12:22:14;;;;;;;6.38;3.03;;;19.10;75.20;;;;;;5085104;28;20027;-73
2022/11/12 12:24:57;;;;;;;5.40;3.35;;;19.30;76.00;;;;;;5069271;28;20111;-74
2022/11/12 12:27:33;;;;;;;9.27;3.92;;;18.90;75.80;;;;;;5086142;28;20027;-73
2022/11/12 12:30:22;;;;;;;5.65;3.60;;;18.70;77.10;;;;;;5084646;28;20043;-73
2022/11/12 12:33:12;;;;;;;8.80;3.47;;;19.00;76.10;;;;;;5069497;28;20100;-73
2022/11/12 12:36:10;;;;;;;7.60;3.58;;;19.20;75.10;;;;;;5090236;28;20027;-74
2022/11/12 12:38:52;;;;;;;8.90;3.53;;;19.00;76.30;;;;;;5079324;28;20051;-74
2022/11/12 12:41:26;;;;;;;7.80;3.65;;;19.10;76.60;;;;;;5089669;28;20153;-74
2022/11/12 12:43:57;;;;;;;4.78;3.38;;;19.00;75.40;;;;;;5088361;28;20177;-74
2022/11/12 12:46:26;;;;;;;5.65;3.45;;;18.70;76.00;;;;;;5073096;28;20146;-74
2022/11/12 12:48:54;;;;;;;9.57;3.53;;;18.40;78.10;;;;;;5088775;28;20098;-74
2022/11/12 12:51:21;;;;;;;5.18;3.20;;;18.10;79.40;;;;;;5072419;28;20036;-74
2022/11/12 12:53:47;;;;;;;7.97;3.65;;;18.00;79.70;;;;;;5072659;28;20032;-73
2022/11/12 12:56:12;;;;;;;6.10;4.07;;;18.00;80.30;;;;;;5088216;28;20024;-73
2022/11/12 12:58:42;;;;;;;4.80;3.65;;;17.80;81.20;;;;;;5091499;28;20077;-73
2022/11/12 13:01:21;;;;;;;7.78;3.78;;;17.80;81.90;;;;;;5090521;28;20437;-73
2022/11/12 13:04:02;;;;;;;5.70;3.75;;;18.00;80.80;;;;;;5072829;28;20109;-74
2022/11/12 13:06:51;;;;;;;5.75;3.30;;;18.60;78.50;;;;;;5082935;28;20430;-72
2022/11/12 13:09:17;;;;;;;6.10;3.67;;;18.70;77.50;;;;;;5081201;28;20036;-74
2022/11/12 13:14:30;;;;;;;8.40;3.90;;;18.10;78.70;;;;;;5087718;28;20876;-74
2022/11/12 13:16:59;;;;;;;7.00;4.10;;;18.00;80.10;;;;;;5070189;28;20032;-76
2022/11/12 13:19:45;;;;;;;6.70;3.95;;;18.00;79.80;;;;;;5091443;28;20700;-75
2022/11/12 13:22:17;;;;;;;4.80;3.80;;;17.90;80.20;;;;;;5090962;28;20032;-75